sensor_id;sensor_type;location;lat;lon;timestamp;P1;durP1;ratioP1;P2;durP2;ratioP2
739;SDS011;354;42.694;23.336;2023-06-05T00:00:01;39.43;;;33.30;;
739;SDS011;354;42.694;23.336;2023-06-05T00:03:27;39.80;;;33.43;;
739;SDS011;354;42.694;23.336;2023-06-05T00:06:33;40.83;;;34.57;;
739;SDS011;354;42.694;23.336;2023-06-05T00:09:58;39.60;;;33.40;;
739;SDS011;354;42.694;23.336;2023-06-05T00:13:21;37.13;;;32.63;;
739;SDS011;354;42.694;23.336;2023-06-05T00:16:35;43.83;;;33.83;;
739;SDS011;354;42.694;23.336;2023-06-05T00:19:40;36.00;;;31.93;;
739;SDS011;354;42.694;23.336;2023-06-05T00:23:06;37.10;;;30.83;;
739;SDS011;354;42.694;23.336;2023-06-05T00:26:15;33.53;;;29.43;;
739;SDS011;354;42.694;23.336;2023-06-05T00:29:24;30.47;;;27.17;;
739;SDS011;354;42.694;23.336;2023-06-05T00:32:31;29.67;;;26.47;;
739;SDS011;354;42.694;23.336;2023-06-05T00:35:38;26.90;;;24.10;;
739;SDS011;354;42.694;23.336;2023-06-05T00:38:27;27.13;;;24.20;;
739;SDS011;354;42.694;23.336;2023-06-05T00:41:52;28.97;;;24.60;;
739;SDS011;354;42.694;23.336;2023-06-05T00:45:17;26.73;;;24.03;;
739;SDS011;354;42.694;23.336;2023-06-05T00:48:05;23.43;;;21.03;;
739;SDS011;354;42.694;23.336;2023-06-05T00:51:17;22.40;;;20.30;;
739;SDS011;354;42.694;23.336;2023-06-05T00:54:26;24.13;;;21.67;;
739;SDS011;354;42.694;23.336;2023-06-05T00:57:33;23.37;;;21.07;;
739;SDS011;354;42.694;23.336;2023-06-05T01:00:58;22.37;;;20.27;;
739;SDS011;354;42.694;23.336;2023-06-05T01:04:23;20.73;;;18.67;;
739;SDS011;354;42.694;23.336;2023-06-05T01:07:49;20.70;;;18.73;;
739;SDS011;354;42.694;23.336;2023-06-05T01:11:17;22.80;;;20.40;;
739;SDS011;354;42.694;23.336;2023-06-05T01:14:27;21.57;;;19.47;;
739;SDS011;354;42.694;23.336;2023-06-05T01:17:39;21.67;;;19.47;;
739;SDS011;354;42.694;23.336;2023-06-05T01:20:34;20.17;;;18.23;;
739;SDS011;354;42.694;23.336;2023-06-05T01:23:42;20.70;;;18.90;;
739;SDS011;354;42.694;23.336;2023-06-05T01:27:12;20.10;;;18.37;;
739;SDS011;354;42.694;23.336;2023-06-05T01:30:24;19.27;;;17.57;;
739;SDS011;354;42.694;23.336;2023-06-05T01:33:33;19.10;;;17.33;;
739;SDS011;354;42.694;23.336;2023-06-05T01:37:04;20.33;;;18.43;;
739;SDS011;354;42.694;23.336;2023-06-05T01:40:14;21.43;;;19.23;;
739;SDS011;354;42.694;23.336;2023-06-05T01:43:01;20.43;;;18.53;;
739;SDS011;354;42.694;23.336;2023-06-05T01:46:26;20.10;;;18.30;;
739;SDS011;354;42.694;23.336;2023-06-05T01:49:39;20.80;;;18.83;;
739;SDS011;354;42.694;23.336;2023-06-05T01:52:52;21.00;;;19.10;;
739;SDS011;354;42.694;23.336;2023-06-05T01:56:17;21.63;;;19.17;;
739;SDS011;354;42.694;23.336;2023-06-05T01:59:44;20.97;;;18.97;;
739;SDS011;354;42.694;23.336;2023-06-05T02:03:14;22.87;;;19.63;;
739;SDS011;354;42.694;23.336;2023-06-05T02:06:18;21.33;;;19.23;;
739;SDS011;354;42.694;23.336;2023-06-05T02:09:19;21.37;;;19.20;;
739;SDS011;354;42.694;23.336;2023-06-05T02:12:45;20.87;;;18.87;;
739;SDS011;354;42.694;23.336;2023-06-05T02:16:12;20.83;;;18.63;;
739;SDS011;354;42.694;23.336;2023-06-05T02:19:18;21.43;;;19.57;;
739;SDS011;354;42.694;23.336;2023-06-05T02:22:43;21.57;;;19.57;;
739;SDS011;354;42.694;23.336;2023-06-05T02:26:08;22.00;;;19.73;;
739;SDS011;354;42.694;23.336;2023-06-05T02:29:33;21.87;;;19.87;;
739;SDS011;354;42.694;23.336;2023-06-05T02:32:22;23.80;;;21.40;;
739;SDS011;354;42.694;23.336;2023-06-05T02:35:35;25.83;;;23.03;;
739;SDS011;354;42.694;23.336;2023-06-05T02:38:42;23.50;;;21.20;;
739;SDS011;354;42.694;23.336;2023-06-05T02:41:48;24.30;;;21.83;;
739;SDS011;354;42.694;23.336;2023-06-05T02:45:03;23.83;;;21.30;;
739;SDS011;354;42.694;23.336;2023-06-05T02:48:13;25.57;;;23.13;;
739;SDS011;354;42.694;23.336;2023-06-05T02:51:40;27.10;;;24.40;;
739;SDS011;354;42.694;23.336;2023-06-05T02:54:26;27.33;;;24.63;;
739;SDS011;354;42.694;23.336;2023-06-05T02:57:53;28.73;;;22.47;;
739;SDS011;354;42.694;23.336;2023-06-05T03:01:13;25.63;;;23.23;;
739;SDS011;354;42.694;23.336;2023-06-05T03:04:38;25.33;;;22.70;;
739;SDS011;354;42.694;23.336;2023-06-05T03:08:03;27.17;;;24.20;;
739;SDS011;354;42.694;23.336;2023-06-05T03:11:32;29.83;;;25.17;;
739;SDS011;354;42.694;23.336;2023-06-05T03:14:44;25.80;;;23.03;;
739;SDS011;354;42.694;23.336;2023-06-05T03:17:53;28.77;;;25.67;;
739;SDS011;354;42.694;23.336;2023-06-05T03:21:20;26.87;;;24.07;;
739;SDS011;354;42.694;23.336;2023-06-05T03:24:47;25.77;;;23.07;;
739;SDS011;354;42.694;23.336;2023-06-05T03:27:53;25.57;;;22.93;;
739;SDS011;354;42.694;23.336;2023-06-05T03:31:14;24.93;;;22.23;;
739;SDS011;354;42.694;23.336;2023-06-05T03:34:40;24.00;;;21.60;;
739;SDS011;354;42.694;23.336;2023-06-05T03:38:15;25.17;;;22.53;;
739;SDS011;354;42.694;23.336;2023-06-05T03:41:40;20.73;;;18.57;;
739;SDS011;354;42.694;23.336;2023-06-05T03:45:05;22.17;;;19.87;;
739;SDS011;354;42.694;23.336;2023-06-05T03:48:32;21.67;;;19.47;;
739;SDS011;354;42.694;23.336;2023-06-05T03:51:58;22.43;;;19.37;;
739;SDS011;354;42.694;23.336;2023-06-05T03:55:23;22.90;;;20.53;;
739;SDS011;354;42.694;23.336;2023-06-05T03:58:50;20.90;;;18.87;;
739;SDS011;354;42.694;23.336;2023-06-05T04:02:18;22.20;;;20.03;;
739;SDS011;354;42.694;23.336;2023-06-05T04:05:46;23.90;;;19.63;;
739;SDS011;354;42.694;23.336;2023-06-05T04:09:11;27.03;;;20.63;;
739;SDS011;354;42.694;23.336;2023-06-05T04:12:17;27.90;;;21.93;;
739;SDS011;354;42.694;23.336;2023-06-05T04:15:44;27.93;;;23.33;;
739;SDS011;354;42.694;23.336;2023-06-05T04:18:36;21.67;;;19.47;;
739;SDS011;354;42.694;23.336;2023-06-05T04:22:03;22.57;;;20.23;;
739;SDS011;354;42.694;23.336;2023-06-05T04:25:30;23.77;;;19.87;;
739;SDS011;354;42.694;23.336;2023-06-05T04:28:55;21.93;;;19.67;;
739;SDS011;354;42.694;23.336;2023-06-05T04:32:20;22.50;;;20.40;;
739;SDS011;354;42.694;23.336;2023-06-05T04:35:45;28.13;;;25.23;;
739;SDS011;354;42.694;23.336;2023-06-05T04:39:10;22.97;;;20.87;;
739;SDS011;354;42.694;23.336;2023-06-05T04:42:16;25.23;;;22.57;;
739;SDS011;354;42.694;23.336;2023-06-05T04:45:23;20.77;;;18.97;;
739;SDS011;354;42.694;23.336;2023-06-05T04:48:53;21.47;;;19.47;;
739;SDS011;354;42.694;23.336;2023-06-05T04:52:21;23.87;;;21.37;;
739;SDS011;354;42.694;23.336;2023-06-05T04:55:46;22.73;;;20.33;;
739;SDS011;354;42.694;23.336;2023-06-05T04:59:11;21.67;;;19.37;;
739;SDS011;354;42.694;23.336;2023-06-05T05:02:37;23.63;;;21.07;;
739;SDS011;354;42.694;23.336;2023-06-05T05:06:03;21.65;;;19.50;;
739;SDS011;354;42.694;23.336;2023-06-05T05:08:56;20.92;;;18.42;;
739;SDS011;354;42.694;23.336;2023-06-05T05:12:06;19.75;;;17.92;;
739;SDS011;354;42.694;23.336;2023-06-05T05:15:12;19.27;;;17.45;;
739;SDS011;354;42.694;23.336;2023-06-05T05:18:03;18.80;;;17.20;;
739;SDS011;354;42.694;23.336;2023-06-05T05:21:29;18.40;;;16.55;;
739;SDS011;354;42.694;23.336;2023-06-05T05:24:55;17.10;;;15.48;;
739;SDS011;354;42.694;23.336;2023-06-05T05:28:17;19.52;;;15.82;;
739;SDS011;354;42.694;23.336;2023-06-05T05:31:04;16.30;;;14.65;;
739;SDS011;354;42.694;23.336;2023-06-05T05:34:11;15.52;;;13.93;;
739;SDS011;354;42.694;23.336;2023-06-05T05:36:57;15.80;;;14.35;;
739;SDS011;354;42.694;23.336;2023-06-05T05:39:29;15.90;;;14.40;;
739;SDS011;354;42.694;23.336;2023-06-05T05:42:54;16.02;;;14.43;;
739;SDS011;354;42.694;23.336;2023-06-05T05:45:41;16.35;;;14.90;;
739;SDS011;354;42.694;23.336;2023-06-05T05:48:28;15.38;;;14.07;;
739;SDS011;354;42.694;23.336;2023-06-05T05:52:01;17.25;;;15.75;;
739;SDS011;354;42.694;23.336;2023-06-05T05:54:48;15.50;;;14.20;;
739;SDS011;354;42.694;23.336;2023-06-05T05:57:55;16.88;;;15.27;;
739;SDS011;354;42.694;23.336;2023-06-05T06:01:06;17.08;;;15.27;;
739;SDS011;354;42.694;23.336;2023-06-05T06:04:13;18.23;;;16.73;;
739;SDS011;354;42.694;23.336;2023-06-05T06:07:38;22.73;;;20.42;;
739;SDS011;354;42.694;23.336;2023-06-05T06:11:03;15.85;;;14.45;;
739;SDS011;354;42.694;23.336;2023-06-05T06:14:16;21.10;;;19.38;;
739;SDS011;354;42.694;23.336;2023-06-05T06:17:06;15.73;;;14.48;;
739;SDS011;354;42.694;23.336;2023-06-05T06:19:51;15.30;;;14.18;;
739;SDS011;354;42.694;23.336;2023-06-05T06:22:39;15.07;;;13.98;;
739;SDS011;354;42.694;23.336;2023-06-05T06:25:07;15.80;;;14.35;;
739;SDS011;354;42.694;23.336;2023-06-05T06:27:55;16.23;;;14.95;;
739;SDS011;354;42.694;23.336;2023-06-05T06:31:02;15.82;;;14.23;;
739;SDS011;354;42.694;23.336;2023-06-05T06:33:56;17.40;;;15.88;;
739;SDS011;354;42.694;23.336;2023-06-05T06:37:26;16.67;;;15.38;;
739;SDS011;354;42.694;23.336;2023-06-05T06:40:53;16.70;;;15.40;;
739;SDS011;354;42.694;23.336;2023-06-05T06:44:21;17.08;;;15.57;;
739;SDS011;354;42.694;23.336;2023-06-05T06:47:46;17.73;;;16.10;;
739;SDS011;354;42.694;23.336;2023-06-05T06:50:51;17.08;;;15.63;;
739;SDS011;354;42.694;23.336;2023-06-05T06:54:16;17.83;;;16.25;;
739;SDS011;354;42.694;23.336;2023-06-05T06:57:42;16.83;;;15.32;;
739;SDS011;354;42.694;23.336;2023-06-05T07:01:11;18.45;;;15.10;;
739;SDS011;354;42.694;23.336;2023-06-05T07:04:36;16.92;;;15.20;;
739;SDS011;354;42.694;23.336;2023-06-05T07:08:02;17.27;;;15.82;;
739;SDS011;354;42.694;23.336;2023-06-05T07:11:30;19.50;;;17.88;;
739;SDS011;354;42.694;23.336;2023-06-05T07:14:56;19.08;;;17.30;;
739;SDS011;354;42.694;23.336;2023-06-05T07:18:21;18.40;;;16.75;;
739;SDS011;354;42.694;23.336;2023-06-05T07:21:46;18.90;;;17.25;;
739;SDS011;354;42.694;23.336;2023-06-05T07:25:17;22.80;;;20.60;;
739;SDS011;354;42.694;23.336;2023-06-05T07:28:32;20.95;;;19.05;;
739;SDS011;354;42.694;23.336;2023-06-05T07:31:52;19.70;;;17.70;;
739;SDS011;354;42.694;23.336;2023-06-05T07:35:03;19.92;;;17.83;;
739;SDS011;354;42.694;23.336;2023-06-05T07:38:10;18.73;;;16.92;;
739;SDS011;354;42.694;23.336;2023-06-05T07:41:39;19.50;;;17.58;;
739;SDS011;354;42.694;23.336;2023-06-05T07:45:09;20.73;;;18.48;;
739;SDS011;354;42.694;23.336;2023-06-05T07:48:17;19.75;;;17.67;;
739;SDS011;354;42.694;23.336;2023-06-05T07:51:43;18.75;;;16.75;;
739;SDS011;354;42.694;23.336;2023-06-05T07:54:48;20.60;;;18.00;;
739;SDS011;354;42.694;23.336;2023-06-05T07:58:36;18.33;;;16.65;;
739;SDS011;354;42.694;23.336;2023-06-05T08:05:31;19.30;;;17.17;;
739;SDS011;354;42.694;23.336;2023-06-05T08:16:30;17.67;;;16.08;;
739;SDS011;354;42.694;23.336;2023-06-05T08:20:08;18.80;;;16.80;;
739;SDS011;354;42.694;23.336;2023-06-05T08:27:27;19.52;;;17.15;;
739;SDS011;354;42.694;23.336;2023-06-05T08:31:10;20.80;;;18.67;;
739;SDS011;354;42.694;23.336;2023-06-05T09:41:10;14.32;;;12.93;;
739;SDS011;354;42.694;23.336;2023-06-05T09:44:33;13.70;;;12.35;;
739;SDS011;354;42.694;23.336;2023-06-05T09:51:48;14.25;;;12.77;;
739;SDS011;354;42.694;23.336;2023-06-05T09:54:15;15.00;;;13.70;;
739;SDS011;354;42.694;23.336;2023-06-05T09:57:50;13.95;;;12.77;;
739;SDS011;354;42.694;23.336;2023-06-05T10:01:41;13.88;;;12.52;;
739;SDS011;354;42.694;23.336;2023-06-05T10:04:48;13.43;;;12.05;;
739;SDS011;354;42.694;23.336;2023-06-05T10:07:49;13.95;;;12.57;;
739;SDS011;354;42.694;23.336;2023-06-05T10:13:22;20.38;;;18.30;;
739;SDS011;354;42.694;23.336;2023-06-05T10:15:47;14.30;;;12.98;;
739;SDS011;354;42.694;23.336;2023-06-05T10:18:16;14.05;;;12.95;;
739;SDS011;354;42.694;23.336;2023-06-05T10:20:41;14.20;;;12.75;;
739;SDS011;354;42.694;23.336;2023-06-05T10:23:07;14.45;;;12.63;;
739;SDS011;354;42.694;23.336;2023-06-05T10:25:33;18.70;;;16.65;;
739;SDS011;354;42.694;23.336;2023-06-05T10:36:44;15.15;;;13.82;;
739;SDS011;354;42.694;23.336;2023-06-05T10:39:21;17.80;;;13.57;;
739;SDS011;354;42.694;23.336;2023-06-05T10:42:23;15.75;;;13.23;;
739;SDS011;354;42.694;23.336;2023-06-05T10:44:49;29.20;;;25.60;;
739;SDS011;354;42.694;23.336;2023-06-05T10:52:47;17.77;;;16.08;;
739;SDS011;354;42.694;23.336;2023-06-05T10:55:16;15.57;;;14.05;;
739;SDS011;354;42.694;23.336;2023-06-05T11:00:26;17.08;;;15.60;;
739;SDS011;354;42.694;23.336;2023-06-05T11:02:55;14.32;;;13.13;;
739;SDS011;354;42.694;23.336;2023-06-05T11:05:30;13.52;;;12.15;;
739;SDS011;354;42.694;23.336;2023-06-05T11:16:35;13.48;;;12.27;;
739;SDS011;354;42.694;23.336;2023-06-05T11:24:34;11.98;;;11.07;;
739;SDS011;354;42.694;23.336;2023-06-05T11:27:01;13.65;;;12.35;;
739;SDS011;354;42.694;23.336;2023-06-05T11:29:28;30.63;;;27.73;;
739;SDS011;354;42.694;23.336;2023-06-05T11:31:54;17.88;;;16.30;;
739;SDS011;354;42.694;23.336;2023-06-05T11:34:20;13.20;;;11.88;;
739;SDS011;354;42.694;23.336;2023-06-05T11:36:46;13.65;;;12.32;;
739;SDS011;354;42.694;23.336;2023-06-05T11:39:12;12.80;;;11.60;;
739;SDS011;354;42.694;23.336;2023-06-05T11:41:48;13.68;;;12.40;;
739;SDS011;354;42.694;23.336;2023-06-05T11:44:30;13.25;;;11.77;;
739;SDS011;354;42.694;23.336;2023-06-05T11:46:57;11.40;;;10.50;;
739;SDS011;354;42.694;23.336;2023-06-05T11:49:23;12.57;;;11.57;;
739;SDS011;354;42.694;23.336;2023-06-05T11:51:50;11.52;;;10.40;;
739;SDS011;354;42.694;23.336;2023-06-05T11:56:55;11.90;;;11.00;;
739;SDS011;354;42.694;23.336;2023-06-05T11:59:35;12.40;;;11.30;;
739;SDS011;354;42.694;23.336;2023-06-05T12:02:01;16.38;;;11.48;;
739;SDS011;354;42.694;23.336;2023-06-05T12:04:28;17.40;;;13.90;;
739;SDS011;354;42.694;23.336;2023-06-05T12:06:54;11.65;;;10.55;;
739;SDS011;354;42.694;23.336;2023-06-05T12:09:20;12.05;;;10.98;;
739;SDS011;354;42.694;23.336;2023-06-05T12:12:06;10.68;;;9.88;;
739;SDS011;354;42.694;23.336;2023-06-05T12:14:33;12.57;;;11.45;;
739;SDS011;354;42.694;23.336;2023-06-05T12:16:59;11.55;;;10.55;;
739;SDS011;354;42.694;23.336;2023-06-05T12:19:25;13.00;;;11.90;;
739;SDS011;354;42.694;23.336;2023-06-05T12:21:50;16.55;;;14.93;;
739;SDS011;354;42.694;23.336;2023-06-05T12:24:26;11.65;;;10.75;;
739;SDS011;354;42.694;23.336;2023-06-05T12:26:55;12.10;;;11.10;;
739;SDS011;354;42.694;23.336;2023-06-05T12:29:24;11.13;;;10.23;;
739;SDS011;354;42.694;23.336;2023-06-05T12:31:54;11.32;;;10.18;;
739;SDS011;354;42.694;23.336;2023-06-05T12:37:09;10.25;;;9.43;;
739;SDS011;354;42.694;23.336;2023-06-05T12:39:35;9.75;;;9.05;;
739;SDS011;354;42.694;23.336;2023-06-05T12:42:01;9.82;;;9.13;;
739;SDS011;354;42.694;23.336;2023-06-05T12:44:27;9.77;;;9.15;;
739;SDS011;354;42.694;23.336;2023-06-05T12:46:52;10.20;;;9.43;;
739;SDS011;354;42.694;23.336;2023-06-05T12:49:18;11.10;;;10.00;;
739;SDS011;354;42.694;23.336;2023-06-05T12:51:43;10.38;;;9.68;;
739;SDS011;354;42.694;23.336;2023-06-05T12:54:09;10.73;;;9.85;;
739;SDS011;354;42.694;23.336;2023-06-05T12:56:35;10.68;;;9.63;;
739;SDS011;354;42.694;23.336;2023-06-05T12:59:01;10.75;;;9.80;;
739;SDS011;354;42.694;23.336;2023-06-05T13:01:27;11.40;;;10.40;;
739;SDS011;354;42.694;23.336;2023-06-05T13:03:53;9.88;;;9.18;;
739;SDS011;354;42.694;23.336;2023-06-05T13:06:19;8.90;;;8.30;;
739;SDS011;354;42.694;23.336;2023-06-05T13:08:45;9.60;;;8.90;;
739;SDS011;354;42.694;23.336;2023-06-05T13:11:11;10.55;;;9.43;;
739;SDS011;354;42.694;23.336;2023-06-05T13:13:37;11.32;;;10.52;;
739;SDS011;354;42.694;23.336;2023-06-05T13:16:03;9.68;;;8.85;;
739;SDS011;354;42.694;23.336;2023-06-05T13:18:32;11.85;;;9.90;;
739;SDS011;354;42.694;23.336;2023-06-05T13:20:58;10.70;;;9.68;;
739;SDS011;354;42.694;23.336;2023-06-05T13:23:23;9.60;;;8.75;;
739;SDS011;354;42.694;23.336;2023-06-05T13:25:50;11.32;;;10.43;;
739;SDS011;354;42.694;23.336;2023-06-05T13:28:15;9.13;;;8.43;;
739;SDS011;354;42.694;23.336;2023-06-05T13:30:41;10.93;;;9.80;;
739;SDS011;354;42.694;23.336;2023-06-05T13:33:06;9.25;;;8.45;;
739;SDS011;354;42.694;23.336;2023-06-05T13:35:32;11.52;;;10.50;;
739;SDS011;354;42.694;23.336;2023-06-05T13:37:57;10.35;;;9.45;;
739;SDS011;354;42.694;23.336;2023-06-05T13:40:22;10.05;;;9.25;;
739;SDS011;354;42.694;23.336;2023-06-05T13:42:51;9.52;;;8.73;;
739;SDS011;354;42.694;23.336;2023-06-05T13:45:18;10.25;;;9.45;;
739;SDS011;354;42.694;23.336;2023-06-05T13:47:43;10.25;;;9.25;;
739;SDS011;354;42.694;23.336;2023-06-05T13:50:09;11.88;;;10.98;;
739;SDS011;354;42.694;23.336;2023-06-05T13:52:34;10.65;;;9.50;;
739;SDS011;354;42.694;23.336;2023-06-05T13:55:00;9.63;;;8.77;;
739;SDS011;354;42.694;23.336;2023-06-05T13:57:26;9.68;;;8.80;;
739;SDS011;354;42.694;23.336;2023-06-05T13:59:52;9.23;;;8.60;;
739;SDS011;354;42.694;23.336;2023-06-05T14:02:17;9.73;;;8.82;;
739;SDS011;354;42.694;23.336;2023-06-05T14:04:43;10.05;;;9.25;;
739;SDS011;354;42.694;23.336;2023-06-05T14:07:08;9.48;;;8.60;;
739;SDS011;354;42.694;23.336;2023-06-05T14:09:33;10.18;;;9.27;;
739;SDS011;354;42.694;23.336;2023-06-05T14:11:59;10.65;;;9.57;;
739;SDS011;354;42.694;23.336;2023-06-05T14:14:25;11.48;;;10.48;;
739;SDS011;354;42.694;23.336;2023-06-05T14:16:51;10.13;;;9.32;;
739;SDS011;354;42.694;23.336;2023-06-05T14:19:16;10.73;;;9.55;;
739;SDS011;354;42.694;23.336;2023-06-05T14:21:42;9.52;;;8.45;;
739;SDS011;354;42.694;23.336;2023-06-05T14:24:08;9.55;;;8.65;;
739;SDS011;354;42.694;23.336;2023-06-05T14:26:35;9.70;;;8.90;;
739;SDS011;354;42.694;23.336;2023-06-05T14:29:00;9.45;;;8.75;;
739;SDS011;354;42.694;23.336;2023-06-05T14:31:26;9.02;;;8.13;;
739;SDS011;354;42.694;23.336;2023-06-05T14:33:53;10.40;;;9.40;;
739;SDS011;354;42.694;23.336;2023-06-05T14:36:18;9.95;;;8.98;;
739;SDS011;354;42.694;23.336;2023-06-05T14:38:44;9.48;;;8.57;;
739;SDS011;354;42.694;23.336;2023-06-05T14:41:10;9.02;;;8.43;;
739;SDS011;354;42.694;23.336;2023-06-05T14:43:35;8.55;;;7.85;;
739;SDS011;354;42.694;23.336;2023-06-05T14:46:01;9.32;;;8.52;;
739;SDS011;354;42.694;23.336;2023-06-05T14:48:26;11.98;;;11.02;;
739;SDS011;354;42.694;23.336;2023-06-05T14:50:52;10.73;;;9.82;;
739;SDS011;354;42.694;23.336;2023-06-05T14:53:18;9.20;;;8.48;;
739;SDS011;354;42.694;23.336;2023-06-05T14:55:49;9.85;;;9.18;;
739;SDS011;354;42.694;23.336;2023-06-05T14:58:15;9.55;;;8.80;;
739;SDS011;354;42.694;23.336;2023-06-05T15:01:01;9.50;;;8.73;;
739;SDS011;354;42.694;23.336;2023-06-05T15:03:27;10.98;;;9.82;;
739;SDS011;354;42.694;23.336;2023-06-05T15:05:52;10.05;;;9.15;;
739;SDS011;354;42.694;23.336;2023-06-05T15:08:18;9.55;;;8.65;;
739;SDS011;354;42.694;23.336;2023-06-05T15:10:44;10.35;;;9.48;;
739;SDS011;354;42.694;23.336;2023-06-05T15:13:15;10.43;;;9.45;;
739;SDS011;354;42.694;23.336;2023-06-05T15:15:47;10.95;;;9.98;;
739;SDS011;354;42.694;23.336;2023-06-05T15:18:13;10.73;;;9.82;;
739;SDS011;354;42.694;23.336;2023-06-05T15:20:38;10.40;;;9.40;;
739;SDS011;354;42.694;23.336;2023-06-05T15:26:40;10.10;;;9.13;;
739;SDS011;354;42.694;23.336;2023-06-05T15:29:50;10.98;;;10.05;;
739;SDS011;354;42.694;23.336;2023-06-05T15:35:57;12.52;;;11.40;;
739;SDS011;354;42.694;23.336;2023-06-05T15:38:23;11.43;;;10.43;;
739;SDS011;354;42.694;23.336;2023-06-05T15:40:49;13.40;;;12.05;;
739;SDS011;354;42.694;23.336;2023-06-05T15:43:15;11.23;;;10.20;;
739;SDS011;354;42.694;23.336;2023-06-05T15:45:41;11.18;;;10.07;;
739;SDS011;354;42.694;23.336;2023-06-05T15:51:41;12.05;;;10.95;;
739;SDS011;354;42.694;23.336;2023-06-05T15:54:06;11.18;;;10.15;;
739;SDS011;354;42.694;23.336;2023-06-05T15:56:32;10.63;;;9.70;;
739;SDS011;354;42.694;23.336;2023-06-05T15:59:33;11.13;;;10.05;;
739;SDS011;354;42.694;23.336;2023-06-05T16:02:20;11.40;;;10.45;;
739;SDS011;354;42.694;23.336;2023-06-05T16:04:46;11.32;;;10.23;;
739;SDS011;354;42.694;23.336;2023-06-05T16:07:13;11.20;;;10.15;;
739;SDS011;354;42.694;23.336;2023-06-05T16:09:39;10.38;;;9.25;;
739;SDS011;354;42.694;23.336;2023-06-05T16:12:04;10.48;;;9.57;;
739;SDS011;354;42.694;23.336;2023-06-05T16:14:33;11.00;;;10.10;;
739;SDS011;354;42.694;23.336;2023-06-05T16:16:58;11.05;;;10.00;;
739;SDS011;354;42.694;23.336;2023-06-05T16:19:24;12.82;;;11.63;;
739;SDS011;354;42.694;23.336;2023-06-05T16:21:49;12.27;;;11.18;;
739;SDS011;354;42.694;23.336;2023-06-05T16:24:15;12.20;;;11.20;;
739;SDS011;354;42.694;23.336;2023-06-05T16:26:40;11.98;;;10.95;;
739;SDS011;354;42.694;23.336;2023-06-05T16:29:06;11.75;;;10.77;;
739;SDS011;354;42.694;23.336;2023-06-05T16:31:32;11.18;;;10.10;;
739;SDS011;354;42.694;23.336;2023-06-05T16:34:00;14.73;;;13.18;;
739;SDS011;354;42.694;23.336;2023-06-05T16:36:32;13.50;;;11.30;;
739;SDS011;354;42.694;23.336;2023-06-05T16:38:58;11.50;;;9.98;;
739;SDS011;354;42.694;23.336;2023-06-05T16:41:23;11.10;;;10.25;;
739;SDS011;354;42.694;23.336;2023-06-05T16:43:48;11.55;;;10.55;;
739;SDS011;354;42.694;23.336;2023-06-05T16:46:14;13.05;;;11.43;;
739;SDS011;354;42.694;23.336;2023-06-05T16:48:39;19.80;;;16.48;;
739;SDS011;354;42.694;23.336;2023-06-05T16:51:04;12.35;;;11.23;;
739;SDS011;354;42.694;23.336;2023-06-05T16:53:30;11.88;;;10.88;;
739;SDS011;354;42.694;23.336;2023-06-05T16:55:55;12.73;;;11.48;;
739;SDS011;354;42.694;23.336;2023-06-05T20:12:13;11.00;;;10.07;;
739;SDS011;354;42.694;23.336;2023-06-05T20:14:39;10.98;;;9.88;;
739;SDS011;354;42.694;23.336;2023-06-05T20:17:05;11.63;;;10.40;;
739;SDS011;354;42.694;23.336;2023-06-05T20:19:32;9.73;;;8.55;;
739;SDS011;354;42.694;23.336;2023-06-05T20:21:58;10.10;;;9.10;;
739;SDS011;354;42.694;23.336;2023-06-05T20:24:28;9.60;;;8.38;;
739;SDS011;354;42.694;23.336;2023-06-05T20:26:54;9.98;;;9.15;;
739;SDS011;354;42.694;23.336;2023-06-05T20:29:20;9.82;;;8.80;;
739;SDS011;354;42.694;23.336;2023-06-05T20:31:45;8.70;;;7.90;;
739;SDS011;354;42.694;23.336;2023-06-05T20:34:11;10.17;;;8.23;;
739;SDS011;354;42.694;23.336;2023-06-05T20:36:37;11.47;;;8.47;;
739;SDS011;354;42.694;23.336;2023-06-05T20:39:06;10.52;;;8.18;;
739;SDS011;354;42.694;23.336;2023-06-05T20:41:44;9.00;;;8.00;;
739;SDS011;354;42.694;23.336;2023-06-05T20:44:20;9.10;;;7.95;;
739;SDS011;354;42.694;23.336;2023-06-05T20:46:49;8.50;;;7.57;;
739;SDS011;354;42.694;23.336;2023-06-05T20:49:19;8.70;;;7.83;;
739;SDS011;354;42.694;23.336;2023-06-05T20:51:46;7.90;;;7.10;;
739;SDS011;354;42.694;23.336;2023-06-05T20:54:12;8.30;;;7.57;;
739;SDS011;354;42.694;23.336;2023-06-05T20:56:37;8.65;;;7.43;;
739;SDS011;354;42.694;23.336;2023-06-05T20:59:03;8.52;;;7.82;;
739;SDS011;354;42.694;23.336;2023-06-05T21:01:28;9.00;;;8.10;;
739;SDS011;354;42.694;23.336;2023-06-05T21:03:57;9.32;;;8.32;;
739;SDS011;354;42.694;23.336;2023-06-05T21:06:24;9.40;;;8.52;;
739;SDS011;354;42.694;23.336;2023-06-05T21:08:51;9.13;;;8.32;;
739;SDS011;354;42.694;23.336;2023-06-05T21:11:18;8.77;;;7.88;;
739;SDS011;354;42.694;23.336;2023-06-05T21:13:43;9.38;;;7.88;;
739;SDS011;354;42.694;23.336;2023-06-05T21:16:09;8.15;;;7.45;;
739;SDS011;354;42.694;23.336;2023-06-05T21:18:34;12.93;;;8.55;;
739;SDS011;354;42.694;23.336;2023-06-05T21:20:59;8.15;;;7.30;;
739;SDS011;354;42.694;23.336;2023-06-05T21:23:25;9.40;;;7.82;;
739;SDS011;354;42.694;23.336;2023-06-05T21:25:50;8.35;;;7.55;;
739;SDS011;354;42.694;23.336;2023-06-05T21:28:16;9.43;;;7.60;;
739;SDS011;354;42.694;23.336;2023-06-05T21:30:41;10.20;;;7.43;;
739;SDS011;354;42.694;23.336;2023-06-05T21:33:06;8.00;;;7.28;;
739;SDS011;354;42.694;23.336;2023-06-05T21:35:32;8.88;;;7.97;;
739;SDS011;354;42.694;23.336;2023-06-05T21:37:58;8.73;;;7.82;;
739;SDS011;354;42.694;23.336;2023-06-05T21:40:23;8.20;;;7.40;;
739;SDS011;354;42.694;23.336;2023-06-05T21:42:49;8.18;;;7.38;;
739;SDS011;354;42.694;23.336;2023-06-05T21:45:15;7.95;;;6.90;;
739;SDS011;354;42.694;23.336;2023-06-05T21:47:40;8.18;;;7.28;;
739;SDS011;354;42.694;23.336;2023-06-05T21:50:06;8.63;;;7.40;;
739;SDS011;354;42.694;23.336;2023-06-05T21:52:32;9.00;;;7.70;;
739;SDS011;354;42.694;23.336;2023-06-05T21:54:58;6.72;;;6.03;;
739;SDS011;354;42.694;23.336;2023-06-05T21:57:23;6.60;;;5.97;;
739;SDS011;354;42.694;23.336;2023-06-05T21:59:48;6.22;;;5.78;;
739;SDS011;354;42.694;23.336;2023-06-05T22:02:14;6.32;;;5.68;;
739;SDS011;354;42.694;23.336;2023-06-05T22:04:39;6.78;;;6.13;;
739;SDS011;354;42.694;23.336;2023-06-05T22:07:05;6.05;;;5.47;;
739;SDS011;354;42.694;23.336;2023-06-05T22:09:30;6.95;;;6.38;;
739;SDS011;354;42.694;23.336;2023-06-05T22:11:56;5.82;;;5.32;;
739;SDS011;354;42.694;23.336;2023-06-05T22:14:23;6.50;;;6.05;;
739;SDS011;354;42.694;23.336;2023-06-05T22:16:50;5.63;;;5.13;;
739;SDS011;354;42.694;23.336;2023-06-05T22:19:15;6.50;;;5.90;;
739;SDS011;354;42.694;23.336;2023-06-05T22:21:45;5.80;;;5.40;;
739;SDS011;354;42.694;23.336;2023-06-05T22:24:14;6.90;;;5.90;;
739;SDS011;354;42.694;23.336;2023-06-05T22:26:44;5.85;;;5.25;;
739;SDS011;354;42.694;23.336;2023-06-05T22:29:10;6.03;;;5.55;;
739;SDS011;354;42.694;23.336;2023-06-05T22:31:36;5.45;;;5.05;;
739;SDS011;354;42.694;23.336;2023-06-05T22:34:02;5.43;;;5.03;;
739;SDS011;354;42.694;23.336;2023-06-05T22:36:28;5.87;;;5.37;;
739;SDS011;354;42.694;23.336;2023-06-05T22:38:54;6.10;;;5.50;;
739;SDS011;354;42.694;23.336;2023-06-05T22:41:23;6.22;;;5.72;;
739;SDS011;354;42.694;23.336;2023-06-05T22:43:49;5.87;;;5.30;;
739;SDS011;354;42.694;23.336;2023-06-05T22:46:15;7.93;;;6.27;;
739;SDS011;354;42.694;23.336;2023-06-05T22:48:40;5.87;;;5.47;;